sensor_id;sensor_type;location;lat;lon;timestamp;pressure;altitude;pressure_sealevel;temperature;humidity
43364;BME280;40636;52.424;-1.948;2023-04-04T00:00:09;101282.41;;;1.82;100.00
43364;BME280;40636;52.424;-1.948;2023-04-04T00:02:37;101276.28;;;1.80;100.00
43364;BME280;40636;52.424;-1.948;2023-04-04T00:05:05;101276.25;;;1.72;100.00
43364;BME280;40636;52.424;-1.948;2023-04-04T00:07:32;101274.84;;;1.68;100.00
43364;BME280;40636;52.424;-1.948;2023-04-04T00:09:58;101279.16;;;1.52;100.00
43364;BME280;40636;52.424;-1.948;2023-04-04T00:12:25;101279.66;;;1.48;100.00
43364;BME280;40636;52.424;-1.948;2023-04-04T00:14:55;101279.47;;;1.49;100.00
43364;BME280;40636;52.424;-1.948;2023-04-04T00:17:22;101282.75;;;1.35;100.00
43364;BME280;40636;52.424;-1.948;2023-04-04T00:19:49;101279.59;;;1.40;100.00
43364;BME280;40636;52.424;-1.948;2023-04-04T00:22:17;101281.75;;;1.36;100.00
43364;BME280;40636;52.424;-1.948;2023-04-04T00:24:44;101283.78;;;1.34;100.00
43364;BME280;40636;52.424;-1.948;2023-04-04T00:27:11;101287.13;;;1.28;100.00
43364;BME280;40636;52.424;-1.948;2023-04-04T00:29:39;101286.03;;;1.21;100.00
43364;BME280;40636;52.424;-1.948;2023-04-04T00:32:06;101283.06;;;1.06;100.00
43364;BME280;40636;52.424;-1.948;2023-04-04T00:34:33;101288.63;;;1.05;100.00
43364;BME280;40636;52.424;-1.948;2023-04-04T00:37:01;101285.75;;;1.06;100.00
43364;BME280;40636;52.424;-1.948;2023-04-04T00:39:28;101289.47;;;1.05;100.00
43364;BME280;40636;52.424;-1.948;2023-04-04T00:41:55;101286.06;;;1.03;100.00
43364;BME280;40636;52.424;-1.948;2023-04-04T00:44:22;101278.13;;;1.01;100.00
43364;BME280;40636;52.424;-1.948;2023-04-04T00:46:51;101276.72;;;0.97;100.00
43364;BME280;40636;52.424;-1.948;2023-04-04T00:49:17;101279.88;;;0.93;100.00
43364;BME280;40636;52.424;-1.948;2023-04-04T00:51:44;101277.56;;;0.98;100.00
43364;BME280;40636;52.424;-1.948;2023-04-04T00:54:11;101276.72;;;0.97;100.00
43364;BME280;40636;52.424;-1.948;2023-04-04T00:56:38;101280.56;;;0.95;100.00
43364;BME280;40636;52.424;-1.948;2023-04-04T00:59:05;101275.63;;;0.90;100.00
43364;BME280;40636;52.424;-1.948;2023-04-04T01:01:34;101273.72;;;0.83;100.00
43364;BME280;40636;52.424;-1.948;2023-04-04T01:04:01;101275.16;;;0.77;100.00
43364;BME280;40636;52.424;-1.948;2023-04-04T01:06:29;101271.69;;;0.67;100.00
43364;BME280;40636;52.424;-1.948;2023-04-04T01:08:58;101257.50;;;0.65;100.00
43364;BME280;40636;52.424;-1.948;2023-04-04T01:11:25;101255.81;;;0.64;100.00
43364;BME280;40636;52.424;-1.948;2023-04-04T01:13:53;101244.84;;;0.65;100.00
43364;BME280;40636;52.424;-1.948;2023-04-04T01:16:21;101241.59;;;0.62;100.00
43364;BME280;40636;52.424;-1.948;2023-04-04T01:18:50;101242.91;;;0.58;100.00
43364;BME280;40636;52.424;-1.948;2023-04-04T01:21:20;101247.56;;;0.65;100.00
43364;BME280;40636;52.424;-1.948;2023-04-04T01:23:58;101240.97;;;0.68;100.00
43364;BME280;40636;52.424;-1.948;2023-04-04T01:26:25;101245.16;;;0.62;100.00
43364;BME280;40636;52.424;-1.948;2023-04-04T01:28:55;101240.75;;;0.61;100.00
43364;BME280;40636;52.424;-1.948;2023-04-04T01:31:38;101235.25;;;0.53;100.00
43364;BME280;40636;52.424;-1.948;2023-04-04T01:34:29;101232.00;;;0.49;100.00
43364;BME280;40636;52.424;-1.948;2023-04-04T01:42:36;101227.16;;;0.35;100.00
43364;BME280;40636;52.424;-1.948;2023-04-04T01:45:06;101233.16;;;0.29;100.00
43364;BME280;40636;52.424;-1.948;2023-04-04T01:47:39;101223.50;;;0.27;100.00
43364;BME280;40636;52.424;-1.948;2023-04-04T01:50:08;101216.34;;;0.35;100.00
43364;BME280;40636;52.424;-1.948;2023-04-04T01:52:35;101218.13;;;0.27;100.00
43364;BME280;40636;52.424;-1.948;2023-04-04T01:55:02;101216.78;;;0.13;100.00
43364;BME280;40636;52.424;-1.948;2023-04-04T01:57:29;101214.00;;;0.05;100.00
43364;BME280;40636;52.424;-1.948;2023-04-04T01:59:56;101225.59;;;0.15;100.00
43364;BME280;40636;52.424;-1.948;2023-04-04T02:02:23;101216.78;;;0.13;100.00
43364;BME280;40636;52.424;-1.948;2023-04-04T02:04:50;101223.09;;;0.04;100.00
43364;BME280;40636;52.424;-1.948;2023-04-04T02:07:17;101216.28;;;-0.01;100.00
43364;BME280;40636;52.424;-1.948;2023-04-04T02:09:44;101221.44;;;-0.07;100.00
43364;BME280;40636;52.424;-1.948;2023-04-04T02:12:11;101214.38;;;-0.08;100.00
43364;BME280;40636;52.424;-1.948;2023-04-04T02:14:38;101210.25;;;-0.12;100.00
43364;BME280;40636;52.424;-1.948;2023-04-04T02:17:05;101210.72;;;-0.17;100.00
43364;BME280;40636;52.424;-1.948;2023-04-04T02:19:32;101197.69;;;-0.21;100.00
43364;BME280;40636;52.424;-1.948;2023-04-04T02:21:59;101208.19;;;-0.28;100.00
43364;BME280;40636;52.424;-1.948;2023-04-04T02:24:26;101197.41;;;-0.28;100.00
43364;BME280;40636;52.424;-1.948;2023-04-04T02:26:52;101196.31;;;-0.35;100.00
43364;BME280;40636;52.424;-1.948;2023-04-04T02:29:19;101192.91;;;-0.37;100.00
43364;BME280;40636;52.424;-1.948;2023-04-04T02:31:46;101198.31;;;-0.37;100.00
43364;BME280;40636;52.424;-1.948;2023-04-04T02:34:13;101197.78;;;-0.41;100.00
43364;BME280;40636;52.424;-1.948;2023-04-04T02:36:40;101188.41;;;-0.46;100.00
43364;BME280;40636;52.424;-1.948;2023-04-04T02:39:06;101197.22;;;-0.44;100.00
43364;BME280;40636;52.424;-1.948;2023-04-04T02:41:33;101193.25;;;-0.50;100.00
43364;BME280;40636;52.424;-1.948;2023-04-04T02:44:00;101189.25;;;-0.46;100.00
43364;BME280;40636;52.424;-1.948;2023-04-04T02:46:26;101180.38;;;-0.56;100.00
43364;BME280;40636;52.424;-1.948;2023-04-04T02:48:53;101180.81;;;-0.61;100.00
43364;BME280;40636;52.424;-1.948;2023-04-04T02:51:20;101170.59;;;-0.57;100.00
43364;BME280;40636;52.424;-1.948;2023-04-04T02:53:46;101172.56;;;-0.59;100.00
43364;BME280;40636;52.424;-1.948;2023-04-04T02:56:13;101168.91;;;-0.58;100.00
43364;BME280;40636;52.424;-1.948;2023-04-04T02:58:40;101164.47;;;-0.49;100.00
43364;BME280;40636;52.424;-1.948;2023-04-04T03:01:08;101157.22;;;-0.49;100.00
43364;BME280;40636;52.424;-1.948;2023-04-04T03:03:34;101161.78;;;-0.59;100.00
43364;BME280;40636;52.424;-1.948;2023-04-04T03:06:02;101166.34;;;-0.60;100.00
43364;BME280;40636;52.424;-1.948;2023-04-04T03:08:28;101160.69;;;-0.66;100.00
43364;BME280;40636;52.424;-1.948;2023-04-04T03:10:55;101157.16;;;-0.67;100.00
43364;BME280;40636;52.424;-1.948;2023-04-04T03:13:22;101160.41;;;-0.73;100.00
43364;BME280;40636;52.424;-1.948;2023-04-04T03:15:48;101159.13;;;-0.69;100.00
43364;BME280;40636;52.424;-1.948;2023-04-04T03:18:15;101161.31;;;-0.82;100.00
43364;BME280;40636;52.424;-1.948;2023-04-04T03:20:42;101155.91;;;-0.82;100.00
43364;BME280;40636;52.424;-1.948;2023-04-04T03:23:09;101154.94;;;-0.81;100.00
43364;BME280;40636;52.424;-1.948;2023-04-04T03:25:36;101154.09;;;-0.82;100.00
43364;BME280;40636;52.424;-1.948;2023-04-04T03:28:09;101144.16;;;-0.81;100.00
43364;BME280;40636;52.424;-1.948;2023-04-04T03:30:37;101138.78;;;-0.81;100.00
43364;BME280;40636;52.424;-1.948;2023-04-04T03:33:04;101146.00;;;-0.91;100.00
43364;BME280;40636;52.424;-1.948;2023-04-04T03:35:39;101144.28;;;-0.83;100.00
43364;BME280;40636;52.424;-1.948;2023-04-04T03:38:08;101134.72;;;-0.95;100.00
43364;BME280;40636;52.424;-1.948;2023-04-04T03:40:36;101141.63;;;-0.92;100.00
43364;BME280;40636;52.424;-1.948;2023-04-04T03:43:05;101137.09;;;-0.92;100.00
43364;BME280;40636;52.424;-1.948;2023-04-04T03:45:33;101133.81;;;-0.86;100.00
43364;BME280;40636;52.424;-1.948;2023-04-04T03:48:01;101135.97;;;-0.89;100.00
43364;BME280;40636;52.424;-1.948;2023-04-04T03:50:28;101132.94;;;-0.77;100.00
43364;BME280;40636;52.424;-1.948;2023-04-04T03:52:55;101137.59;;;-0.79;100.00
43364;BME280;40636;52.424;-1.948;2023-04-04T03:55:23;101141.19;;;-0.88;100.00
43364;BME280;40636;52.424;-1.948;2023-04-04T03:57:51;101136.97;;;-0.90;100.00
43364;BME280;40636;52.424;-1.948;2023-04-04T04:00:18;101137.28;;;-1.03;100.00
43364;BME280;40636;52.424;-1.948;2023-04-04T04:02:45;101136.16;;;-1.10;100.00
43364;BME280;40636;52.424;-1.948;2023-04-04T04:05:12;101131.78;;;-1.11;100.00
43364;BME280;40636;52.424;-1.948;2023-04-04T04:07:42;101132.91;;;-1.14;100.00
43364;BME280;40636;52.424;-1.948;2023-04-04T04:10:08;101131.31;;;-1.07;100.00
43364;BME280;40636;52.424;-1.948;2023-04-04T04:12:35;101128.22;;;-1.12;100.00
43364;BME280;40636;52.424;-1.948;2023-04-04T04:15:03;101131.06;;;-1.13;100.00
43364;BME280;40636;52.424;-1.948;2023-04-04T04:17:29;101130.19;;;-1.14;100.00
43364;BME280;40636;52.424;-1.948;2023-04-04T04:19:56;101127.81;;;-1.17;100.00
43364;BME280;40636;52.424;-1.948;2023-04-04T04:22:22;101125.97;;;-1.16;100.00
43364;BME280;40636;52.424;-1.948;2023-04-04T04:24:49;101126.81;;;-1.16;100.00
43364;BME280;40636;52.424;-1.948;2023-04-04T04:27:16;101130.22;;;-1.23;100.00
43364;BME280;40636;52.424;-1.948;2023-04-04T04:29:42;101129.06;;;-1.11;100.00
43364;BME280;40636;52.424;-1.948;2023-04-04T04:32:09;101128.63;;;-1.07;100.00
43364;BME280;40636;52.424;-1.948;2023-04-04T04:34:36;101127.94;;;-1.09;100.00
43364;BME280;40636;52.424;-1.948;2023-04-04T04:37:02;101120.75;;;-1.18;100.00
43364;BME280;40636;52.424;-1.948;2023-04-04T04:39:29;101123.16;;;-1.34;100.00
43364;BME280;40636;52.424;-1.948;2023-04-04T04:41:56;101126.88;;;-1.35;100.00
43364;BME280;40636;52.424;-1.948;2023-04-04T04:44:22;101125.16;;;-1.26;100.00
43364;BME280;40636;52.424;-1.948;2023-04-04T04:46:49;101122.88;;;-1.21;100.00
43364;BME280;40636;52.424;-1.948;2023-04-04T04:49:16;101127.16;;;-1.38;100.00
43364;BME280;40636;52.424;-1.948;2023-04-04T04:51:43;101127.16;;;-1.38;100.00
43364;BME280;40636;52.424;-1.948;2023-04-04T04:54:09;101119.78;;;-1.36;100.00
43364;BME280;40636;52.424;-1.948;2023-04-04T04:56:36;101120.22;;;-1.41;100.00
43364;BME280;40636;52.424;-1.948;2023-04-04T04:59:03;101128.56;;;-1.44;100.00
43364;BME280;40636;52.424;-1.948;2023-04-04T05:01:32;101120.34;;;-1.42;100.00
43364;BME280;40636;52.424;-1.948;2023-04-04T05:03:59;101125.72;;;-1.42;100.00
43364;BME280;40636;52.424;-1.948;2023-04-04T05:06:25;101121.75;;;-1.38;100.00
43364;BME280;40636;52.424;-1.948;2023-04-04T05:08:52;101122.34;;;-1.44;100.00
43364;BME280;40636;52.424;-1.948;2023-04-04T05:11:19;101124.75;;;-1.51;100.00
43364;BME280;40636;52.424;-1.948;2023-04-04T05:13:47;101124.31;;;-1.46;100.00
43364;BME280;40636;52.424;-1.948;2023-04-04T05:16:13;101129.56;;;-1.55;100.00
43364;BME280;40636;52.424;-1.948;2023-04-04T05:18:40;101129.00;;;-1.48;100.00
43364;BME280;40636;52.424;-1.948;2023-04-04T05:21:07;101133.41;;;-1.47;100.00
43364;BME280;40636;52.424;-1.948;2023-04-04T05:23:34;101126.56;;;-1.42;100.00
43364;BME280;40636;52.424;-1.948;2023-04-04T05:26:00;101132.25;;;-1.55;100.00
43364;BME280;40636;52.424;-1.948;2023-04-04T05:28:28;101128.88;;;-1.57;100.00
43364;BME280;40636;52.424;-1.948;2023-04-04T05:30:54;101145.03;;;-1.66;100.00
43364;BME280;40636;52.424;-1.948;2023-04-04T05:33:23;101144.59;;;-1.62;100.00
43364;BME280;40636;52.424;-1.948;2023-04-04T05:35:50;101145.44;;;-1.61;100.00
43364;BME280;40636;52.424;-1.948;2023-04-04T05:38:17;101153.78;;;-1.74;100.00
43364;BME280;40636;52.424;-1.948;2023-04-04T05:40:44;101150.41;;;-1.66;100.00
43364;BME280;40636;52.424;-1.948;2023-04-04T05:43:11;101150.13;;;-1.63;100.00
43364;BME280;40636;52.424;-1.948;2023-04-04T05:45:38;101147.44;;;-1.63;100.00
43364;BME280;40636;52.424;-1.948;2023-04-04T05:48:07;101140.75;;;-1.69;100.00
43364;BME280;40636;52.424;-1.948;2023-04-04T05:50:34;101147.13;;;-1.70;100.00
43364;BME280;40636;52.424;-1.948;2023-04-04T05:53:01;101145.59;;;-1.63;100.00
43364;BME280;40636;52.424;-1.948;2023-04-04T05:55:28;101147.56;;;-1.65;100.00
43364;BME280;40636;52.424;-1.948;2023-04-04T05:57:55;101147.44;;;-1.54;100.00
43364;BME280;40636;52.424;-1.948;2023-04-04T06:00:22;101150.97;;;-1.53;100.00
43364;BME280;40636;52.424;-1.948;2023-04-04T06:02:49;101148.28;;;-1.53;100.00
43364;BME280;40636;52.424;-1.948;2023-04-04T06:05:18;101145.28;;;-1.50;100.00
43364;BME280;40636;52.424;-1.948;2023-04-04T06:07:44;101149.53;;;-1.47;100.00
43364;BME280;40636;52.424;-1.948;2023-04-04T06:10:11;101148.84;;;-1.49;100.00
43364;BME280;40636;52.424;-1.948;2023-04-04T06:12:38;101147.00;;;-1.49;100.00
43364;BME280;40636;52.424;-1.948;2023-04-04T06:15:05;101148.97;;;-1.41;100.00
43364;BME280;40636;52.424;-1.948;2023-04-04T06:17:34;101146.25;;;-1.41;100.00
43364;BME280;40636;52.424;-1.948;2023-04-04T06:20:01;101146.00;;;-1.38;100.00
43364;BME280;40636;52.424;-1.948;2023-04-04T06:22:30;101138.19;;;-1.41;100.00
43364;BME280;40636;52.424;-1.948;2023-04-04T06:24:58;101141.75;;;-1.50;100.00
43364;BME280;40636;52.424;-1.948;2023-04-04T06:27:25;101150.25;;;-1.36;100.00
43364;BME280;40636;52.424;-1.948;2023-04-04T06:29:51;101148.81;;;-1.30;100.00
43364;BME280;40636;52.424;-1.948;2023-04-04T06:32:19;101143.03;;;-1.35;100.00
43364;BME280;40636;52.424;-1.948;2023-04-04T06:34:47;101147.66;;;-1.28;100.00
43364;BME280;40636;52.424;-1.948;2023-04-04T06:37:13;101142.53;;;-1.11;100.00
43364;BME280;40636;52.424;-1.948;2023-04-04T06:39:40;101147.75;;;-1.00;100.00
43364;BME280;40636;52.424;-1.948;2023-04-04T06:42:07;101145.13;;;-0.82;100.00
43364;BME280;40636;52.424;-1.948;2023-04-04T06:44:33;101145.66;;;-0.69;100.00
43364;BME280;40636;52.424;-1.948;2023-04-04T06:47:00;101140.22;;;-0.59;100.00
43364;BME280;40636;52.424;-1.948;2023-04-04T06:49:27;101133.63;;;-0.47;100.00
43364;BME280;40636;52.424;-1.948;2023-04-04T06:51:54;101137.00;;;-0.35;100.00
43364;BME280;40636;52.424;-1.948;2023-04-04T06:54:21;101141.16;;;-0.23;100.00
43364;BME280;40636;52.424;-1.948;2023-04-04T06:56:47;101132.25;;;-0.06;100.00
43364;BME280;40636;52.424;-1.948;2023-04-04T06:59:14;101137.00;;;0.10;100.00
43364;BME280;40636;52.424;-1.948;2023-04-04T07:01:41;101129.88;;;0.27;100.00
43364;BME280;40636;52.424;-1.948;2023-04-04T07:04:07;101125.38;;;0.54;100.00
43364;BME280;40636;52.424;-1.948;2023-04-04T07:06:35;101125.59;;;0.78;100.00
43364;BME280;40636;52.424;-1.948;2023-04-04T07:09:02;101135.53;;;1.04;100.00
43364;BME280;40636;52.424;-1.948;2023-04-04T07:11:32;101133.31;;;1.25;100.00
43364;BME280;40636;52.424;-1.948;2023-04-04T07:13:59;101138.47;;;1.44;100.00
43364;BME280;40636;52.424;-1.948;2023-04-04T07:16:26;101133.13;;;1.61;100.00
43364;BME280;40636;52.424;-1.948;2023-04-04T07:18:53;101139.97;;;1.73;100.00
43364;BME280;40636;52.424;-1.948;2023-04-04T07:21:20;101150.81;;;1.89;100.00
43364;BME280;40636;52.424;-1.948;2023-04-04T07:23:46;101148.50;;;2.02;100.00
43364;BME280;40636;52.424;-1.948;2023-04-04T07:26:13;101150.38;;;2.10;100.00
43364;BME280;40636;52.424;-1.948;2023-04-04T07:28:40;101146.16;;;2.24;100.00
43364;BME280;40636;52.424;-1.948;2023-04-04T07:31:07;101151.75;;;2.31;100.00
43364;BME280;40636;52.424;-1.948;2023-04-04T07:33:33;101144.81;;;2.44;100.00
43364;BME280;40636;52.424;-1.948;2023-04-04T07:36:00;101140.78;;;2.57;100.00
43364;BME280;40636;52.424;-1.948;2023-04-04T07:38:27;101147.03;;;2.65;100.00
43364;BME280;40636;52.424;-1.948;2023-04-04T07:40:54;101147.53;;;2.77;100.00
43364;BME280;40636;52.424;-1.948;2023-04-04T07:43:21;101149.72;;;2.82;100.00
43364;BME280;40636;52.424;-1.948;2023-04-04T07:45:48;101143.78;;;2.94;100.00
43364;BME280;40636;52.424;-1.948;2023-04-04T07:48:15;101147.34;;;3.03;100.00
43364;BME280;40636;52.424;-1.948;2023-04-04T07:50:41;101142.41;;;3.15;100.00
43364;BME280;40636;52.424;-1.948;2023-04-04T07:53:08;101136.09;;;3.22;100.00
43364;BME280;40636;52.424;-1.948;2023-04-04T07:55:35;101135.94;;;3.32;100.00
43364;BME280;40636;52.424;-1.948;2023-04-04T07:58:01;101140.31;;;3.41;100.00
43364;BME280;40636;52.424;-1.948;2023-04-04T08:00:28;101135.72;;;3.50;100.00
43364;BME280;40636;52.424;-1.948;2023-04-04T08:02:55;101142.31;;;3.55;100.00
43364;BME280;40636;52.424;-1.948;2023-04-04T08:05:24;101129.53;;;3.64;100.00
43364;BME280;40636;52.424;-1.948;2023-04-04T08:07:51;101123.22;;;3.72;100.00
43364;BME280;40636;52.424;-1.948;2023-04-04T08:10:18;101118.47;;;3.74;100.00
43364;BME280;40636;52.424;-1.948;2023-04-04T08:12:47;101118.44;;;3.82;100.00
43364;BME280;40636;52.424;-1.948;2023-04-04T08:15:14;101115.00;;;3.88;100.00
43364;BME280;40636;52.424;-1.948;2023-04-04T08:17:41;101121.03;;;3.98;100.00
43364;BME280;40636;52.424;-1.948;2023-04-04T08:20:11;101119.13;;;4.07;100.00
43364;BME280;40636;52.424;-1.948;2023-04-04T08:22:39;101110.09;;;4.15;100.00
43364;BME280;40636;52.424;-1.948;2023-04-04T08:25:07;101123.09;;;4.27;100.00
43364;BME280;40636;52.424;-1.948;2023-04-04T08:27:34;101124.88;;;4.35;100.00
43364;BME280;40636;52.424;-1.948;2023-04-04T08:30:00;101113.09;;;4.43;100.00
43364;BME280;40636;52.424;-1.948;2023-04-04T08:32:29;101113.53;;;4.54;100.00
43364;BME280;40636;52.424;-1.948;2023-04-04T08:34:57;101113.09;;;4.66;100.00
43364;BME280;40636;52.424;-1.948;2023-04-04T08:37:24;101109.75;;;4.78;100.00
43364;BME280;40636;52.424;-1.948;2023-04-04T08:39:51;101109.69;;;4.87;100.00
43364;BME280;40636;52.424;-1.948;2023-04-04T08:42:18;101112.59;;;5.00;100.00
43364;BME280;40636;52.424;-1.948;2023-04-04T08:44:49;101117.78;;;5.09;100.00
43364;BME280;40636;52.424;-1.948;2023-04-04T08:47:18;101117.31;;;5.21;100.00
43364;BME280;40636;52.424;-1.948;2023-04-04T08:49:48;101118.16;;;5.36;100.00
43364;BME280;40636;52.424;-1.948;2023-04-04T08:52:17;101117.47;;;5.49;100.00
43364;BME280;40636;52.424;-1.948;2023-04-04T08:54:46;101119.19;;;5.65;100.00
43364;BME280;40636;52.424;-1.948;2023-04-04T08:57:13;101112.78;;;5.72;100.00
43364;BME280;40636;52.424;-1.948;2023-04-04T08:59:40;101116.78;;;5.76;100.00
43364;BME280;40636;52.424;-1.948;2023-04-04T09:04:34;101116.63;;;5.93;100.00
43364;BME280;40636;52.424;-1.948;2023-04-04T09:07:04;101120.84;;;5.95;100.00
43364;BME280;40636;52.424;-1.948;2023-04-04T09:09:31;101127.56;;;5.99;100.00
43364;BME280;40636;52.424;-1.948;2023-04-04T09:12:02;101116.78;;;6.06;100.00
43364;BME280;40636;52.424;-1.948;2023-04-04T09:14:30;101113.22;;;6.05;100.00
43364;BME280;40636;52.424;-1.948;2023-04-04T09:16:57;101110.38;;;6.14;100.00
43364;BME280;40636;52.424;-1.948;2023-04-04T09:19:25;101114.56;;;6.16;100.00
43364;BME280;40636;52.424;-1.948;2023-04-04T09:21:52;101122.38;;;6.19;100.00
43364;BME280;40636;52.424;-1.948;2023-04-04T09:24:19;101115.69;;;6.22;100.00
43364;BME280;40636;52.424;-1.948;2023-04-04T09:26:48;101121.41;;;6.27;100.00
43364;BME280;40636;52.424;-1.948;2023-04-04T09:29:19;101118.38;;;6.37;100.00
43364;BME280;40636;52.424;-1.948;2023-04-04T09:31:47;101120.94;;;6.45;100.00
43364;BME280;40636;52.424;-1.948;2023-04-04T09:34:17;101128.16;;;6.52;100.00
43364;BME280;40636;52.424;-1.948;2023-04-04T09:36:44;101124.22;;;6.55;100.00
43364;BME280;40636;52.424;-1.948;2023-04-04T09:39:12;101110.38;;;6.56;100.00
43364;BME280;40636;52.424;-1.948;2023-04-04T09:41:43;101107.44;;;6.58;100.00
43364;BME280;40636;52.424;-1.948;2023-04-04T09:44:11;101114.00;;;6.64;100.00
43364;BME280;40636;52.424;-1.948;2023-04-04T09:46:39;101110.88;;;6.67;100.00
43364;BME280;40636;52.424;-1.948;2023-04-04T09:49:10;101103.34;;;6.69;100.00
43364;BME280;40636;52.424;-1.948;2023-04-04T09:51:38;101097.75;;;6.77;100.00
43364;BME280;40636;52.424;-1.948;2023-04-04T09:54:10;101102.94;;;6.72;100.00
43364;BME280;40636;52.424;-1.948;2023-04-04T09:56:55;101098.59;;;6.77;100.00
43364;BME280;40636;52.424;-1.948;2023-04-04T09:59:23;101098.41;;;6.79;100.00
43364;BME280;40636;52.424;-1.948;2023-04-04T10:01:50;101100.75;;;6.82;100.00
43364;BME280;40636;52.424;-1.948;2023-04-04T10:04:19;101091.13;;;6.86;100.00
43364;BME280;40636;52.424;-1.948;2023-04-04T10:06:45;101100.38;;;6.92;100.00
43364;BME280;40636;52.424;-1.948;2023-04-04T10:09:14;101100.84;;;6.95;100.00
43364;BME280;40636;52.424;-1.948;2023-04-04T10:11:41;101095.88;;;7.05;100.00
43364;BME280;40636;52.424;-1.948;2023-04-04T10:14:08;101097.16;;;7.09;100.00
43364;BME280;40636;52.424;-1.948;2023-04-04T10:16:35;101104.53;;;7.16;100.00
43364;BME280;40636;52.424;-1.948;2023-04-04T10:19:04;101100.63;;;7.25;100.00
43364;BME280;40636;52.424;-1.948;2023-04-04T10:21:34;101101.06;;;7.28;100.00
43364;BME280;40636;52.424;-1.948;2023-04-04T10:24:05;101107.75;;;7.26;100.00
43364;BME280;40636;52.424;-1.948;2023-04-04T10:26:40;101098.34;;;7.35;100.00
43364;BME280;40636;52.424;-1.948;2023-04-04T10:29:09;101100.31;;;7.41;100.00
43364;BME280;40636;52.424;-1.948;2023-04-04T10:31:38;101104.31;;;7.45;100.00
43364;BME280;40636;52.424;-1.948;2023-04-04T10:34:16;101099.03;;;7.44;100.00
43364;BME280;40636;52.424;-1.948;2023-04-04T10:37:11;101102.38;;;7.39;100.00
43364;BME280;40636;52.424;-1.948;2023-04-04T10:39:52;101084.00;;;7.54;100.00
43364;BME280;40636;52.424;-1.948;2023-04-04T10:42:24;101089.75;;;7.73;100.00
43364;BME280;40636;52.424;-1.948;2023-04-04T10:44:54;101089.75;;;7.79;100.00
43364;BME280;40636;52.424;-1.948;2023-04-04T10:47:22;101092.94;;;7.83;100.00
43364;BME280;40636;52.424;-1.948;2023-04-04T10:49:55;101097.28;;;7.71;100.00
43364;BME280;40636;52.424;-1.948;2023-04-04T10:52:27;101089.97;;;7.84;100.00
43364;BME280;40636;52.424;-1.948;2023-04-04T10:54:58;101090.41;;;7.81;100.00
43364;BME280;40636;52.424;-1.948;2023-04-04T10:57:26;101094.22;;;7.87;100.00
43364;BME280;40636;52.424;-1.948;2023-04-04T11:00:04;101086.22;;;7.92;100.00
43364;BME280;40636;52.424;-1.948;2023-04-04T11:08:01;101090.06;;;8.11;100.00
43364;BME280;40636;52.424;-1.948;2023-04-04T11:10:40;101088.81;;;8.13;100.00
43364;BME280;40636;52.424;-1.948;2023-04-04T11:13:11;101086.50;;;8.17;100.00
43364;BME280;40636;52.424;-1.948;2023-04-04T11:16:07;101085.88;;;8.22;100.00
43364;BME280;40636;52.424;-1.948;2023-04-04T11:21:19;101073.06;;;8.29;100.00
43364;BME280;40636;52.424;-1.948;2023-04-04T11:28:58;101071.00;;;8.44;100.00
43364;BME280;40636;52.424;-1.948;2023-04-04T11:31:27;101067.59;;;8.35;100.00
43364;BME280;40636;52.424;-1.948;2023-04-04T11:34:04;101063.66;;;8.38;100.00
43364;BME280;40636;52.424;-1.948;2023-04-04T11:39:12;101062.38;;;8.54;100.00
43364;BME280;40636;52.424;-1.948;2023-04-04T11:42:09;101060.72;;;8.59;100.00
43364;BME280;40636;52.424;-1.948;2023-04-04T11:45:00;101056.50;;;8.63;100.00
43364;BME280;40636;52.424;-1.948;2023-04-04T11:47:30;101051.44;;;8.67;100.00
43364;BME280;40636;52.424;-1.948;2023-04-04T11:49:59;101062.81;;;8.77;100.00
43364;BME280;40636;52.424;-1.948;2023-04-04T11:52:32;101054.19;;;8.87;100.00
43364;BME280;40636;52.424;-1.948;2023-04-04T11:55:01;101051.88;;;8.91;100.00
43364;BME280;40636;52.424;-1.948;2023-04-04T11:57:28;101050.16;;;8.89;100.00
43364;BME280;40636;52.424;-1.948;2023-04-04T11:59:55;101045.09;;;8.93;100.00
43364;BME280;40636;52.424;-1.948;2023-04-04T12:02:25;101039.22;;;8.96;100.00
43364;BME280;40636;52.424;-1.948;2023-04-04T12:05:00;101040.91;;;8.91;92.13
43364;BME280;40636;52.424;-1.948;2023-04-04T12:07:30;101035.00;;;8.94;100.00
43364;BME280;40636;52.424;-1.948;2023-04-04T12:09:57;101028.69;;;8.93;100.00
43364;BME280;40636;52.424;-1.948;2023-04-04T12:12:25;101017.31;;;8.96;100.00
43364;BME280;40636;52.424;-1.948;2023-04-04T12:14:53;101012.88;;;9.02;100.00
43364;BME280;40636;52.424;-1.948;2023-04-04T12:17:40;101013.91;;;9.07;100.00
43364;BME280;40636;52.424;-1.948;2023-04-04T12:20:09;101011.34;;;9.12;100.00
43364;BME280;40636;52.424;-1.948;2023-04-04T12:22:37;101008.63;;;9.12;100.00
43364;BME280;40636;52.424;-1.948;2023-04-04T12:25:04;101002.91;;;9.21;100.00
43364;BME280;40636;52.424;-1.948;2023-04-04T12:27:32;101000.63;;;9.18;100.00
43364;BME280;40636;52.424;-1.948;2023-04-04T12:29:59;100994.28;;;9.17;100.00
43364;BME280;40636;52.424;-1.948;2023-04-04T12:32:26;100997.44;;;9.27;100.00
43364;BME280;40636;52.424;-1.948;2023-04-04T12:34:59;100985.66;;;9.20;100.00
43364;BME280;40636;52.424;-1.948;2023-04-04T12:37:29;100989.81;;;9.29;100.00
43364;BME280;40636;52.424;-1.948;2023-04-04T12:39:57;100990.25;;;9.33;100.00
43364;BME280;40636;52.424;-1.948;2023-04-04T12:42:24;100976.53;;;9.33;100.00
43364;BME280;40636;52.424;-1.948;2023-04-04T12:44:52;100969.56;;;9.37;98.43
43364;BME280;40636;52.424;-1.948;2023-04-04T12:47:20;100964.88;;;9.44;100.00
43364;BME280;40636;52.424;-1.948;2023-04-04T12:49:51;100962.53;;;9.54;100.00
43364;BME280;40636;52.424;-1.948;2023-04-04T12:52:27;100958.50;;;9.57;100.00
43364;BME280;40636;52.424;-1.948;2023-04-04T12:55:05;100956.16;;;9.60;100.00
43364;BME280;40636;52.424;-1.948;2023-04-04T12:57:37;100953.00;;;9.63;100.00
43364;BME280;40636;52.424;-1.948;2023-04-04T13:00:05;100955.47;;;9.72;100.00
43364;BME280;40636;52.424;-1.948;2023-04-04T13:02:35;100940.06;;;9.77;100.00
43364;BME280;40636;52.424;-1.948;2023-04-04T13:05:04;100942.34;;;9.80;100.00